createdAt,value
2022-08-27T00:01:22.262Z,20.05
2022-08-27T00:03:50.240Z,20.05
2022-08-27T00:06:21.597Z,20.04
2022-08-27T00:08:49.061Z,19.96
2022-08-27T00:11:17.883Z,19.96
2022-08-27T00:13:46.529Z,19.94
2022-08-27T00:16:16.187Z,19.84
2022-08-27T00:18:46.629Z,19.87
2022-08-27T00:21:16.650Z,19.73
2022-08-27T00:23:43.887Z,19.81
2022-08-27T00:26:11.778Z,19.80
2022-08-27T00:28:39.866Z,19.64
2022-08-27T00:31:06.805Z,19.72
2022-08-27T00:33:33.972Z,19.73
2022-08-27T00:36:02.323Z,19.74
2022-08-27T00:38:29.928Z,19.61
2022-08-27T00:40:57.062Z,19.57
2022-08-27T00:43:31.317Z,19.61
2022-08-27T00:46:11.625Z,19.61
2022-08-27T00:48:38.773Z,19.41
2022-08-27T00:51:06.615Z,19.26
2022-08-27T00:53:36.205Z,19.30
2022-08-27T00:56:13.334Z,19.24
2022-08-27T00:58:45.609Z,19.40
2022-08-27T01:01:16.549Z,19.43
2022-08-27T01:03:47.756Z,19.33
2022-08-27T01:06:17.205Z,19.37
2022-08-27T01:08:50.801Z,19.24
2022-08-27T01:11:18.968Z,19.23
2022-08-27T01:13:59.626Z,19.31
2022-08-27T01:16:35.925Z,19.38
2022-08-27T01:19:14.573Z,19.39
2022-08-27T01:21:51.411Z,19.59
2022-08-27T01:24:35.854Z,19.58
2022-08-27T01:27:08.081Z,19.56
2022-08-27T01:29:41.477Z,19.62
2022-08-27T01:32:10.668Z,19.55
2022-08-27T01:34:38.362Z,19.57
2022-08-27T01:37:06.775Z,19.60
2022-08-27T01:39:39.674Z,19.60
2022-08-27T01:42:24.851Z,19.43
2022-08-27T01:44:58.825Z,19.28
2022-08-27T01:47:30.559Z,19.23
2022-08-27T01:50:00.458Z,19.47
2022-08-27T01:52:30.401Z,19.39
2022-08-27T01:54:58.416Z,19.44
2022-08-27T01:57:26.488Z,19.44
2022-08-27T01:59:57.052Z,19.39
2022-08-27T02:02:24.260Z,19.23
2022-08-27T02:04:52.294Z,19.32
2022-08-27T02:07:19.445Z,19.40
2022-08-27T02:09:46.427Z,19.26
2022-08-27T02:12:13.797Z,19.47
2022-08-27T02:14:40.791Z,19.44
2022-08-27T02:17:07.878Z,19.26
2022-08-27T02:19:35.079Z,19.50
2022-08-27T02:22:01.978Z,19.47
2022-08-27T02:24:29.378Z,19.48
2022-08-27T02:26:57.140Z,19.51
2022-08-27T02:29:25.506Z,19.46
2022-08-27T02:31:52.676Z,19.43
2022-08-27T02:34:19.590Z,19.24
2022-08-27T02:36:47.825Z,19.29
2022-08-27T02:39:14.836Z,19.47
2022-08-27T02:41:41.639Z,19.27
2022-08-27T02:44:10.410Z,19.20
2022-08-27T02:46:41.859Z,19.43
2022-08-27T02:49:09.726Z,19.52
2022-08-27T02:51:37.779Z,19.46
2022-08-27T02:54:06.243Z,19.60
2022-08-27T02:56:38.068Z,19.56
2022-08-27T02:59:05.820Z,19.47
2022-08-27T03:01:32.838Z,19.51
2022-08-27T03:04:01.125Z,19.69
2022-08-27T03:06:28.825Z,19.84
2022-08-27T03:08:55.751Z,19.73
2022-08-27T03:11:23.604Z,19.93
2022-08-27T03:13:51.535Z,19.95
2022-08-27T03:16:20.504Z,19.95
2022-08-27T03:18:47.497Z,19.91
2022-08-27T03:21:19.661Z,20.05
2022-08-27T03:23:48.715Z,20.24
2022-08-27T03:26:16.169Z,20.34
2022-08-27T03:28:43.671Z,20.51
2022-08-27T03:31:20.658Z,20.72
2022-08-27T03:33:47.872Z,21.31
2022-08-27T03:36:15.400Z,21.82
2022-08-27T03:38:42.401Z,21.73
2022-08-27T03:41:10.007Z,21.84
2022-08-27T03:43:37.278Z,21.97
2022-08-27T03:46:04.393Z,22.07
2022-08-27T03:48:32.111Z,21.90
2022-08-27T03:50:59.566Z,21.97
2022-08-27T03:53:26.709Z,22.04
2022-08-27T03:55:53.998Z,22.13
2022-08-27T03:58:21.189Z,22.21
2022-08-27T04:00:48.612Z,22.19
2022-08-27T04:03:16.025Z,22.33
2022-08-27T04:05:45.300Z,22.65
2022-08-27T04:08:13.576Z,22.79
2022-08-27T04:10:41.537Z,23.12
2022-08-27T04:13:08.599Z,23.23
2022-08-27T04:15:40.542Z,23.29
2022-08-27T04:18:07.759Z,23.40
2022-08-27T04:20:36.001Z,23.54
2022-08-27T04:23:05.222Z,23.45
2022-08-27T04:25:32.811Z,23.72
2022-08-27T04:28:00.166Z,23.73
2022-08-27T04:30:27.308Z,23.84
2022-08-27T04:32:54.489Z,23.91
2022-08-27T04:35:22.016Z,23.97
2022-08-27T04:37:48.927Z,23.90
2022-08-27T04:40:15.927Z,23.87
2022-08-27T04:42:44.739Z,23.95
2022-08-27T04:45:12.078Z,23.73
2022-08-27T04:47:38.931Z,24.04
2022-08-27T04:50:07.092Z,24.03
2022-08-27T04:52:35.220Z,24.22
2022-08-27T04:55:09.413Z,24.09
2022-08-27T04:57:38.124Z,24.40
2022-08-27T05:00:07.356Z,24.46
2022-08-27T05:02:34.624Z,24.48
2022-08-27T05:05:01.888Z,24.40
2022-08-27T05:07:30.057Z,24.57
2022-08-27T05:09:57.526Z,24.87
2022-08-27T05:12:29.348Z,24.80
2022-08-27T05:14:56.341Z,24.77
2022-08-27T05:17:23.662Z,24.83
2022-08-27T05:19:50.697Z,24.81
2022-08-27T05:22:17.547Z,24.78
2022-08-27T05:24:49.564Z,24.83
2022-08-27T05:27:17.867Z,24.81
2022-08-27T05:29:44.767Z,25.09
2022-08-27T05:32:12.126Z,25.10
2022-08-27T05:34:39.120Z,25.46
2022-08-27T05:37:06.452Z,25.58
2022-08-27T05:39:33.634Z,25.63
2022-08-27T05:42:00.572Z,25.95
2022-08-27T05:44:42.711Z,26.26
2022-08-27T05:47:10.471Z,26.57
2022-08-27T05:49:37.831Z,26.72
2022-08-27T05:52:08.895Z,26.78
2022-08-27T05:54:36.801Z,26.98
2022-08-27T05:57:03.851Z,27.02
2022-08-27T05:59:49.152Z,27.09
2022-08-27T06:02:16.516Z,27.17
2022-08-27T06:04:43.356Z,27.20
2022-08-27T06:07:11.099Z,27.16
2022-08-27T06:09:38.936Z,27.42
2022-08-27T06:12:06.630Z,27.53
2022-08-27T06:14:35.500Z,27.73
2022-08-27T06:17:03.522Z,27.82
2022-08-27T06:19:30.715Z,27.87
2022-08-27T06:22:09.589Z,27.96
2022-08-27T06:24:42.494Z,28.20
2022-08-27T06:27:12.777Z,28.30
2022-08-27T06:29:41.023Z,28.42
2022-08-27T06:32:09.647Z,28.46
2022-08-27T06:34:37.950Z,28.29
2022-08-27T06:37:05.930Z,28.46
2022-08-27T06:39:32.934Z,28.44
2022-08-27T06:41:59.964Z,28.44
2022-08-27T06:44:32.999Z,28.50
2022-08-27T06:47:00.040Z,28.54
2022-08-27T06:49:27.458Z,28.61
2022-08-27T06:51:54.943Z,28.70
2022-08-27T06:54:22.188Z,28.77
2022-08-27T06:56:50.217Z,28.84
2022-08-27T06:59:20.819Z,28.94
2022-08-27T07:01:51.472Z,29.09
2022-08-27T07:04:22.392Z,29.22
2022-08-27T07:06:54.952Z,29.29
2022-08-27T07:09:24.564Z,29.25
2022-08-27T07:11:51.510Z,29.34
2022-08-27T07:14:18.514Z,29.41
2022-08-27T07:16:45.751Z,29.51
2022-08-27T07:19:15.249Z,29.38
2022-08-27T07:21:44.306Z,29.53
2022-08-27T07:24:12.644Z,29.53
2022-08-27T07:26:43.114Z,29.54
2022-08-27T07:29:12.912Z,29.50
2022-08-27T07:31:40.034Z,29.60
2022-08-27T07:34:07.642Z,29.71
2022-08-27T07:36:36.011Z,29.71
2022-08-27T07:39:03.655Z,29.50
2022-08-27T07:41:31.963Z,29.50
2022-08-27T07:44:19.231Z,29.40
2022-08-27T07:46:48.696Z,29.51
2022-08-27T07:49:19.211Z,29.64
2022-08-27T07:51:46.910Z,29.82
2022-08-27T07:54:14.451Z,29.83
2022-08-27T07:56:41.866Z,30.04
2022-08-27T07:59:09.374Z,30.07
2022-08-27T08:01:36.860Z,30.25
2022-08-27T08:04:04.101Z,30.35
2022-08-27T08:06:31.300Z,30.40
2022-08-27T08:08:59.979Z,30.83
2022-08-27T08:11:27.030Z,30.96
2022-08-27T08:13:54.015Z,31.13
2022-08-27T08:16:28.284Z,31.15
2022-08-27T08:19:00.354Z,31.32
2022-08-27T08:21:27.734Z,31.26
2022-08-27T08:23:54.846Z,31.36
2022-08-27T08:26:23.280Z,31.46
2022-08-27T08:28:50.235Z,31.65
2022-08-27T08:31:17.114Z,31.61
2022-08-27T08:33:44.452Z,31.54
2022-08-27T08:36:13.744Z,31.53
2022-08-27T08:38:41.794Z,31.50
2022-08-27T08:41:40.346Z,31.61
2022-08-27T08:44:26.295Z,31.73
2022-08-27T08:46:59.634Z,31.72
2022-08-27T08:49:32.399Z,31.68
2022-08-27T08:52:19.248Z,31.88
2022-08-27T08:55:07.557Z,31.99
2022-08-27T08:57:43.837Z,32.05
2022-08-27T09:00:13.977Z,31.97
2022-08-27T09:02:51.219Z,32.19
2022-08-27T09:05:18.592Z,32.22
2022-08-27T09:08:15.154Z,32.22
2022-08-27T09:10:56.618Z,32.27
2022-08-27T09:13:58.745Z,31.93
2022-08-27T09:16:26.152Z,31.89
2022-08-27T09:18:53.874Z,31.89
2022-08-27T09:21:27.762Z,31.96
2022-08-27T09:24:05.409Z,32.08
2022-08-27T09:26:37.238Z,32.20
2022-08-27T09:29:17.207Z,32.18
2022-08-27T09:31:54.130Z,32.25
2022-08-27T09:34:22.556Z,32.44
2022-08-27T09:37:08.284Z,32.70
2022-08-27T09:39:50.294Z,32.92
2022-08-27T09:42:26.650Z,33.04
2022-08-27T09:44:54.981Z,33.28
2022-08-27T09:47:21.972Z,33.27
2022-08-27T09:49:49.364Z,33.21
2022-08-27T09:52:38.049Z,33.18
2022-08-27T09:55:07.272Z,33.28
2022-08-27T09:57:38.583Z,33.23
2022-08-27T10:00:14.075Z,33.08
2022-08-27T10:02:56.164Z,33.22
2022-08-27T10:05:30.405Z,33.44
2022-08-27T10:08:35.398Z,33.45
2022-08-27T10:11:07.421Z,33.62
2022-08-27T10:13:46.885Z,33.70
2022-08-27T10:16:36.672Z,33.53
2022-08-27T10:19:16.872Z,33.33
2022-08-27T10:21:51.147Z,33.48
2022-08-27T10:24:33.370Z,33.62
2022-08-27T10:27:06.058Z,33.51
2022-08-27T10:30:10.297Z,33.50
2022-08-27T10:32:45.829Z,33.60
2022-08-27T10:35:26.734Z,33.50
2022-08-27T10:38:30.291Z,33.38
2022-08-27T10:41:15.734Z,33.15
2022-08-27T10:44:13.672Z,33.16
2022-08-27T10:47:13.168Z,33.10
2022-08-27T10:50:03.862Z,33.22
2022-08-27T10:52:51.610Z,33.36
2022-08-27T10:55:24.654Z,33.39
2022-08-27T10:58:04.622Z,33.43
2022-08-27T11:00:56.382Z,33.41
2022-08-27T11:03:32.181Z,33.27
2022-08-27T11:06:14.382Z,33.13
2022-08-27T11:08:50.122Z,32.97
2022-08-27T11:12:12.766Z,32.87
2022-08-27T11:14:47.893Z,32.93
2022-08-27T11:17:25.286Z,33.03
2022-08-27T11:19:59.750Z,32.59
2022-08-27T11:23:00.860Z,32.96
2022-08-27T11:25:36.014Z,32.75
2022-08-27T11:28:05.557Z,32.64
2022-08-27T11:30:42.204Z,32.71
2022-08-27T11:33:35.545Z,32.81
2022-08-27T11:36:08.763Z,32.99
2022-08-27T11:39:02.948Z,33.03
2022-08-27T11:42:04.257Z,33.13
2022-08-27T11:44:31.591Z,33.19
2022-08-27T11:47:13.795Z,33.17
2022-08-27T11:49:48.039Z,33.27
2022-08-27T11:52:36.365Z,33.26
2022-08-27T11:55:21.619Z,33.36
2022-08-27T11:58:07.585Z,33.25
2022-08-27T12:00:38.669Z,33.33
2022-08-27T12:03:23.969Z,33.27
2022-08-27T12:05:54.074Z,33.19
2022-08-27T12:08:24.849Z,33.14
2022-08-27T12:11:08.443Z,33.08
2022-08-27T12:13:53.249Z,32.95
2022-08-27T12:16:32.354Z,33.00
2022-08-27T12:19:11.130Z,32.88
2022-08-27T12:22:10.704Z,32.77
2022-08-27T12:24:43.557Z,32.86
2022-08-27T12:27:26.489Z,32.86
2022-08-27T12:30:00.644Z,32.66
2022-08-27T12:32:33.241Z,32.58
2022-08-27T12:35:23.640Z,32.51
2022-08-27T12:38:04.394Z,32.42
2022-08-27T12:41:03.906Z,32.37
2022-08-27T12:43:35.127Z,32.30
2022-08-27T12:46:07.656Z,32.30
2022-08-27T12:48:40.533Z,32.34
2022-08-27T12:51:13.784Z,32.15
2022-08-27T12:53:52.917Z,32.26
2022-08-27T12:56:32.078Z,32.05
2022-08-27T12:59:31.923Z,32.18
2022-08-27T13:02:05.149Z,32.22
2022-08-27T13:04:34.338Z,32.32
2022-08-27T13:07:01.104Z,32.20
2022-08-27T13:09:36.888Z,32.36
2022-08-27T13:12:14.777Z,32.36
2022-08-27T13:14:42.064Z,32.24
2022-08-27T13:17:15.893Z,32.46
2022-08-27T13:19:51.456Z,32.53
2022-08-27T13:22:29.193Z,32.66
2022-08-27T13:24:57.127Z,32.76
2022-08-27T13:27:31.745Z,32.66
2022-08-27T13:30:03.060Z,32.71
2022-08-27T13:32:31.065Z,32.76
2022-08-27T13:35:00.395Z,32.82
2022-08-27T13:37:37.900Z,32.81
2022-08-27T13:40:06.364Z,32.69
2022-08-27T13:42:33.951Z,32.50
2022-08-27T13:45:07.942Z,32.47
2022-08-27T13:47:49.175Z,32.29
2022-08-27T13:50:28.518Z,32.15
2022-08-27T13:53:31.422Z,32.15
2022-08-27T13:55:59.454Z,32.12
2022-08-27T13:58:31.183Z,31.88
2022-08-27T14:01:29.066Z,31.95
2022-08-27T14:04:04.469Z,31.89
2022-08-27T14:06:44.188Z,31.82
2022-08-27T14:09:28.303Z,31.68
2022-08-27T14:12:10.927Z,31.54
2022-08-27T14:14:41.352Z,31.52
2022-08-27T14:17:26.793Z,31.34
2022-08-27T14:20:01.394Z,31.22
2022-08-27T14:22:28.736Z,31.18
2022-08-27T14:24:55.617Z,31.06
2022-08-27T14:27:22.875Z,31.05
2022-08-27T14:29:52.133Z,30.86
2022-08-27T14:32:19.503Z,30.75
2022-08-27T14:34:46.794Z,30.71
2022-08-27T14:37:14.803Z,30.69
2022-08-27T14:39:43.571Z,30.62
2022-08-27T14:42:12.778Z,30.57
2022-08-27T14:44:40.092Z,30.47
2022-08-27T14:47:09.643Z,30.52
2022-08-27T14:49:40.330Z,30.47
2022-08-27T14:52:09.564Z,30.47
2022-08-27T14:54:36.692Z,30.40
2022-08-27T14:57:05.441Z,30.25
2022-08-27T14:59:33.538Z,30.49
2022-08-27T15:02:02.684Z,30.48
2022-08-27T15:04:30.851Z,30.52
2022-08-27T15:06:58.302Z,30.34
2022-08-27T15:09:25.312Z,30.34
2022-08-27T15:11:53.304Z,30.44
2022-08-27T15:14:31.582Z,30.39
2022-08-27T15:17:02.651Z,30.37
2022-08-27T15:19:49.430Z,30.29
2022-08-27T15:22:20.498Z,30.04
2022-08-27T15:24:58.166Z,30.16
2022-08-27T15:27:38.231Z,30.14
2022-08-27T15:30:11.793Z,30.01
2022-08-27T15:32:45.207Z,29.87
2022-08-27T15:35:16.264Z,29.87
2022-08-27T15:37:44.533Z,29.80
2022-08-27T15:40:14.712Z,29.72
2022-08-27T15:42:42.044Z,29.61
2022-08-27T15:45:11.554Z,29.52
2022-08-27T15:47:39.281Z,29.30
2022-08-27T15:50:07.342Z,29.35
2022-08-27T15:52:40.929Z,29.32
2022-08-27T15:55:40.078Z,29.16
2022-08-27T15:58:08.885Z,29.13
2022-08-27T16:00:37.454Z,29.07
2022-08-27T16:03:08.666Z,29.00
2022-08-27T16:05:38.117Z,28.99
2022-08-27T16:08:05.597Z,28.76
2022-08-27T16:10:33.692Z,28.85
2022-08-27T16:13:00.618Z,28.83
2022-08-27T16:15:28.297Z,28.76
2022-08-27T16:17:59.332Z,28.61
2022-08-27T16:20:27.156Z,28.62
2022-08-27T16:22:54.487Z,28.44
2022-08-27T16:25:23.584Z,28.50
2022-08-27T16:27:51.626Z,28.48
2022-08-27T16:30:20.209Z,28.42
2022-08-27T16:32:49.405Z,28.19
2022-08-27T16:35:16.701Z,28.05
2022-08-27T16:37:44.316Z,28.07
2022-08-27T16:40:13.484Z,28.01
2022-08-27T16:42:44.432Z,28.01
2022-08-27T16:45:14.213Z,27.82
2022-08-27T16:48:01.316Z,27.93
2022-08-27T16:50:34.893Z,27.59
2022-08-27T16:53:07.632Z,27.70
2022-08-27T16:55:35.819Z,27.63
2022-08-27T16:58:02.634Z,27.56
2022-08-27T17:00:30.179Z,27.65
2022-08-27T17:03:05.467Z,27.53
2022-08-27T17:05:34.914Z,27.51
2022-08-27T17:08:02.944Z,27.42
2022-08-27T17:10:35.675Z,27.38
2022-08-27T17:13:02.775Z,27.15
2022-08-27T17:15:29.827Z,27.23
2022-08-27T17:17:58.071Z,27.13
2022-08-27T17:20:25.757Z,27.04
2022-08-27T17:22:57.089Z,27.07
2022-08-27T17:25:30.138Z,26.79
2022-08-27T17:28:00.199Z,26.93
2022-08-27T17:30:28.194Z,26.70
2022-08-27T17:32:55.189Z,26.76
2022-08-27T17:35:22.069Z,26.75
2022-08-27T17:37:49.181Z,26.71
2022-08-27T17:40:16.040Z,26.65
2022-08-27T17:42:43.006Z,26.55
2022-08-27T17:45:10.851Z,26.64
2022-08-27T17:47:37.926Z,26.55
2022-08-27T17:50:05.827Z,26.55
2022-08-27T17:52:34.430Z,26.45
2022-08-27T17:55:01.313Z,26.46
2022-08-27T17:57:40.495Z,26.47
2022-08-27T18:00:11.217Z,26.39
2022-08-27T18:02:44.437Z,26.26
2022-08-27T18:05:13.916Z,26.10
2022-08-27T18:07:41.544Z,26.01
2022-08-27T18:10:10.160Z,26.05
2022-08-27T18:12:40.997Z,26.04
2022-08-27T18:15:10.081Z,26.04
2022-08-27T18:17:42.573Z,26.02
2022-08-27T18:20:13.265Z,25.93
2022-08-27T18:22:41.120Z,25.99
2022-08-27T18:25:17.983Z,25.98
2022-08-27T18:27:47.318Z,25.76
2022-08-27T18:30:14.710Z,25.95
2022-08-27T18:32:43.812Z,25.96
2022-08-27T18:35:17.789Z,25.92
2022-08-27T18:37:45.482Z,25.72
2022-08-27T18:40:14.517Z,25.93
2022-08-27T18:42:42.104Z,25.85
2022-08-27T18:45:13.293Z,25.73
2022-08-27T18:47:40.691Z,25.86
2022-08-27T18:50:09.793Z,25.80
2022-08-27T18:52:46.735Z,25.89
2022-08-27T18:55:17.614Z,25.84
2022-08-27T18:57:44.590Z,25.86
2022-08-27T19:00:14.571Z,25.86
2022-08-27T19:02:43.001Z,25.90
2022-08-27T19:05:11.392Z,25.89
2022-08-27T19:07:38.701Z,25.79
2022-08-27T19:10:07.885Z,25.66
2022-08-27T19:12:34.856Z,25.79
2022-08-27T19:15:04.430Z,25.73
2022-08-27T19:17:37.948Z,25.75
2022-08-27T19:20:06.588Z,25.73
2022-08-27T19:22:33.945Z,25.69
2022-08-27T19:25:01.165Z,25.51
2022-08-27T19:27:30.024Z,25.60
2022-08-27T19:29:57.235Z,25.43
2022-08-27T19:32:24.232Z,25.46
2022-08-27T19:34:51.330Z,25.36
2022-08-27T19:37:25.498Z,25.35
2022-08-27T19:39:52.960Z,25.29
2022-08-27T19:42:20.045Z,25.02
2022-08-27T19:44:47.458Z,24.98
2022-08-27T19:47:21.395Z,25.07
2022-08-27T19:49:49.828Z,24.82
2022-08-27T19:52:16.711Z,24.98
2022-08-27T19:55:09.789Z,24.90
2022-08-27T19:57:30.903Z,24.73
2022-08-27T19:59:57.909Z,24.48
2022-08-27T20:02:25.043Z,24.40
2022-08-27T20:05:16.297Z,24.52
2022-08-27T20:07:39.420Z,24.37
2022-08-27T20:10:08.182Z,24.40
2022-08-27T20:12:36.995Z,24.23
2022-08-27T20:15:06.353Z,24.19
2022-08-27T20:17:35.549Z,24.12
2022-08-27T20:20:03.151Z,24.07
2022-08-27T20:22:30.418Z,23.96
2022-08-27T20:24:57.553Z,23.92
2022-08-27T20:27:25.145Z,23.63
2022-08-27T20:29:54.670Z,23.96
2022-08-27T20:32:24.796Z,23.84
2022-08-27T20:34:55.253Z,23.99
2022-08-27T20:37:22.590Z,24.09
2022-08-27T20:39:50.572Z,24.09
2022-08-27T20:42:19.785Z,24.12
2022-08-27T20:44:47.361Z,23.94
2022-08-27T20:47:16.154Z,23.89
2022-08-27T20:49:44.809Z,23.85
2022-08-27T20:52:13.114Z,23.77
2022-08-27T20:54:41.188Z,23.79
2022-08-27T20:57:11.546Z,23.60
2022-08-27T20:59:59.160Z,23.71
2022-08-27T21:02:30.093Z,23.65
2022-08-27T21:04:58.041Z,23.69
2022-08-27T21:07:25.741Z,23.67
2022-08-27T21:09:57.210Z,23.57
2022-08-27T21:12:26.745Z,23.58
2022-08-27T21:14:58.057Z,23.50
2022-08-27T21:17:33.785Z,23.42
2022-08-27T21:20:01.021Z,23.47
2022-08-27T21:22:28.549Z,23.39
2022-08-27T21:24:55.623Z,23.35
2022-08-27T21:27:25.439Z,23.21
2022-08-27T21:29:52.637Z,23.40
2022-08-27T21:32:19.854Z,23.40
2022-08-27T21:34:47.143Z,23.31
2022-08-27T21:37:17.398Z,23.46
2022-08-27T21:39:44.723Z,23.46
2022-08-27T21:42:12.926Z,23.30
2022-08-27T21:44:40.356Z,23.40
2022-08-27T21:47:08.050Z,23.41
2022-08-27T21:49:35.655Z,23.38
2022-08-27T21:52:06.078Z,23.38
2022-08-27T21:54:38.012Z,23.33
2022-08-27T21:57:06.420Z,23.41
2022-08-27T21:59:40.327Z,23.40
2022-08-27T22:02:28.873Z,23.40
2022-08-27T22:04:56.817Z,23.37
2022-08-27T22:07:24.398Z,23.34
2022-08-27T22:09:51.384Z,23.37
2022-08-27T22:12:18.265Z,23.35
2022-08-27T22:14:45.475Z,23.34
2022-08-27T22:17:15.889Z,23.26
2022-08-27T22:19:43.169Z,23.29
2022-08-27T22:22:10.208Z,23.32
2022-08-27T22:24:37.609Z,23.31
2022-08-27T22:27:07.839Z,23.29
2022-08-27T22:29:34.877Z,23.31
2022-08-27T22:32:01.686Z,23.21
2022-08-27T22:34:28.881Z,23.20
2022-08-27T22:36:55.667Z,23.25
2022-08-27T22:39:23.078Z,23.24
2022-08-27T22:41:51.198Z,23.15
2022-08-27T22:44:18.292Z,23.02
2022-08-27T22:46:45.604Z,23.15
2022-08-27T22:49:13.017Z,23.05
2022-08-27T22:51:39.963Z,23.05
2022-08-27T22:54:08.012Z,23.00
2022-08-27T22:56:35.863Z,22.80
2022-08-27T22:59:02.886Z,22.74
2022-08-27T23:01:36.451Z,22.84
2022-08-27T23:04:04.557Z,22.77
2022-08-27T23:06:31.911Z,22.79
2022-08-27T23:08:59.033Z,22.53
2022-08-27T23:11:25.952Z,22.51
2022-08-27T23:13:53.253Z,22.43
2022-08-27T23:16:21.010Z,22.51
2022-08-27T23:18:47.886Z,22.53
2022-08-27T23:21:14.821Z,22.53
2022-08-27T23:23:41.885Z,22.48
2022-08-27T23:26:27.621Z,22.42
2022-08-27T23:28:55.015Z,22.31
2022-08-27T23:31:22.714Z,22.29
2022-08-27T23:33:53.900Z,22.39
2022-08-27T23:36:21.391Z,22.34
2022-08-27T23:38:48.250Z,22.32
2022-08-27T23:41:18.672Z,22.26
2022-08-27T23:43:48.042Z,22.20
2022-08-27T23:46:14.966Z,22.13
2022-08-27T23:48:41.816Z,22.07
2022-08-27T23:51:09.736Z,22.00
2022-08-27T23:53:37.650Z,21.76
2022-08-27T23:56:05.468Z,21.95
2022-08-27T23:58:32.860Z,21.88
